Aviation Digital Data Service (ADDS)

Output produced by TAFs form (1312 UTC 24 January 2017)
found at http://aviationweather.gov/adds/tafs/
 
KGUP 241305Z 2413/2512 24020G30KT P6SM VCSH SCT025 OVC040 
     TEMPO 2419/2423 6SM -SHRASN OVC035 
     FM250000 24013KT P6SM BKN040 
     FM250600 23010KT P6SM VCFG SCT005 OVC035